sensor_id;sensor_type;location;lat;lon;timestamp;pressure;altitude;pressure_sealevel;temperature;humidity
26192;BME280;13935;55.672;37.764;2024-01-30T00:01:06;101178.03;;;1.02;100.00
26192;BME280;13935;55.672;37.764;2024-01-30T00:02:22;101168.47;;;1.04;100.00
26192;BME280;13935;55.672;37.764;2024-01-30T00:05:04;101158.25;;;1.15;100.00
26192;BME280;13935;55.672;37.764;2024-01-30T00:07:02;101162.06;;;1.14;100.00
26192;BME280;13935;55.672;37.764;2024-01-30T00:10:23;101173.41;;;1.21;100.00
26192;BME280;13935;55.672;37.764;2024-01-30T00:13:00;101169.34;;;1.18;100.00
26192;BME280;13935;55.672;37.764;2024-01-30T00:15:48;101174.84;;;0.95;100.00
26192;BME280;13935;55.672;37.764;2024-01-30T00:22:18;101170.75;;;1.16;100.00
26192;BME280;13935;55.672;37.764;2024-01-30T00:25:09;101165.91;;;1.13;100.00
26192;BME280;13935;55.672;37.764;2024-01-30T00:27:48;101168.63;;;1.13;100.00
26192;BME280;13935;55.672;37.764;2024-01-30T00:33:35;101163.00;;;1.04;100.00
26192;BME280;13935;55.672;37.764;2024-01-30T00:35:27;101155.50;;;0.96;100.00
26192;BME280;13935;55.672;37.764;2024-01-30T00:37:21;101161.00;;;1.10;100.00
26192;BME280;13935;55.672;37.764;2024-01-30T00:43:02;101164.63;;;1.05;100.00
26192;BME280;13935;55.672;37.764;2024-01-30T00:45:16;101156.28;;;0.97;100.00
26192;BME280;13935;55.672;37.764;2024-01-30T00:47:42;101163.97;;;0.95;100.00
26192;BME280;13935;55.672;37.764;2024-01-30T00:49:23;101161.72;;;0.97;100.00
26192;BME280;13935;55.672;37.764;2024-01-30T00:54:39;101160.56;;;1.03;100.00
26192;BME280;13935;55.672;37.764;2024-01-30T01:03:38;101143.56;;;0.92;100.00
26192;BME280;13935;55.672;37.764;2024-01-30T01:12:40;101161.28;;;1.32;100.00
26192;BME280;13935;55.672;37.764;2024-01-30T01:48:20;101134.66;;;1.60;100.00
26192;BME280;13935;55.672;37.764;2024-01-30T02:03:31;101111.91;;;1.33;100.00
26192;BME280;13935;55.672;37.764;2024-01-30T02:08:37;101124.28;;;1.44;100.00
26192;BME280;13935;55.672;37.764;2024-01-30T02:13:24;101112.25;;;1.63;100.00
26192;BME280;13935;55.672;37.764;2024-01-30T02:15:57;101110.06;;;1.47;100.00
26192;BME280;13935;55.672;37.764;2024-01-30T02:17:39;101119.78;;;1.35;100.00
26192;BME280;13935;55.672;37.764;2024-01-30T02:21:29;101104.13;;;1.58;100.00
26192;BME280;13935;55.672;37.764;2024-01-30T02:23:53;101120.00;;;1.56;100.00
26192;BME280;13935;55.672;37.764;2024-01-30T02:25:32;101133.03;;;1.59;100.00
26192;BME280;13935;55.672;37.764;2024-01-30T02:26:52;101115.81;;;1.45;100.00
26192;BME280;13935;55.672;37.764;2024-01-30T02:31:09;101117.75;;;1.77;100.00
26192;BME280;13935;55.672;37.764;2024-01-30T02:32:53;101123.00;;;1.73;100.00
26192;BME280;13935;55.672;37.764;2024-01-30T02:37:23;101115.16;;;1.85;100.00
26192;BME280;13935;55.672;37.764;2024-01-30T02:39:15;101113.25;;;1.86;100.00
26192;BME280;13935;55.672;37.764;2024-01-30T02:40:45;101107.09;;;1.94;100.00
26192;BME280;13935;55.672;37.764;2024-01-30T02:42:06;101104.84;;;1.82;100.00
26192;BME280;13935;55.672;37.764;2024-01-30T02:43:36;101109.47;;;1.82;100.00
26192;BME280;13935;55.672;37.764;2024-01-30T02:45:13;101119.53;;;1.68;100.00
26192;BME280;13935;55.672;37.764;2024-01-30T02:46:30;101108.59;;;1.54;100.00
26192;BME280;13935;55.672;37.764;2024-01-30T02:48:36;101116.66;;;1.59;100.00
26192;BME280;13935;55.672;37.764;2024-01-30T02:50:14;101114.69;;;1.65;100.00
26192;BME280;13935;55.672;37.764;2024-01-30T02:52:11;101112.84;;;1.60;100.00
26192;BME280;13935;55.672;37.764;2024-01-30T02:53:38;101112.31;;;1.77;100.00
26192;BME280;13935;55.672;37.764;2024-01-30T02:54:51;101111.91;;;1.83;100.00
26192;BME280;13935;55.672;37.764;2024-01-30T02:56:29;101107.50;;;1.87;100.00
26192;BME280;13935;55.672;37.764;2024-01-30T02:57:46;101112.97;;;2.01;100.00
26192;BME280;13935;55.672;37.764;2024-01-30T02:59:46;101114.38;;;1.98;100.00
26192;BME280;13935;55.672;37.764;2024-01-30T03:01:33;101106.28;;;1.93;100.00
26192;BME280;13935;55.672;37.764;2024-01-30T03:07:48;101105.06;;;1.86;100.00
26192;BME280;13935;55.672;37.764;2024-01-30T03:09:16;101116.91;;;1.95;100.00
26192;BME280;13935;55.672;37.764;2024-01-30T03:10:39;101113.69;;;2.06;100.00
26192;BME280;13935;55.672;37.764;2024-01-30T03:12:48;101127.34;;;2.06;100.00
26192;BME280;13935;55.672;37.764;2024-01-30T03:14:11;101121.69;;;2.16;100.00
26192;BME280;13935;55.672;37.764;2024-01-30T03:15:35;101131.16;;;2.05;100.00
26192;BME280;13935;55.672;37.764;2024-01-30T03:16:47;101128.63;;;1.95;100.00
26192;BME280;13935;55.672;37.764;2024-01-30T03:18:02;101126.31;;;2.02;100.00
26192;BME280;13935;55.672;37.764;2024-01-30T03:21:13;101138.69;;;2.13;100.00
26192;BME280;13935;55.672;37.764;2024-01-30T03:23:07;101134.56;;;1.97;100.00
26192;BME280;13935;55.672;37.764;2024-01-30T03:25:11;101136.50;;;1.97;100.00
26192;BME280;13935;55.672;37.764;2024-01-30T03:27:28;101135.00;;;2.04;100.00
26192;BME280;13935;55.672;37.764;2024-01-30T03:28:38;101135.09;;;1.99;100.00
26192;BME280;13935;55.672;37.764;2024-01-30T03:30:02;101140.66;;;1.94;100.00
26192;BME280;13935;55.672;37.764;2024-01-30T03:31:35;101132.63;;;1.84;100.00
26192;BME280;13935;55.672;37.764;2024-01-30T03:36:22;101134.22;;;2.04;100.00
26192;BME280;13935;55.672;37.764;2024-01-30T03:41:20;101136.97;;;2.17;100.00
26192;BME280;13935;55.672;37.764;2024-01-30T03:42:51;101134.63;;;2.11;100.00
26192;BME280;13935;55.672;37.764;2024-01-30T03:44:49;101126.03;;;2.17;100.00
26192;BME280;13935;55.672;37.764;2024-01-30T03:46:19;101126.44;;;2.11;100.00
26192;BME280;13935;55.672;37.764;2024-01-30T03:47:42;101137.22;;;2.02;100.00
26192;BME280;13935;55.672;37.764;2024-01-30T03:49:05;101132.19;;;2.09;100.00
26192;BME280;13935;55.672;37.764;2024-01-30T03:50:41;101135.00;;;2.04;100.00
26192;BME280;13935;55.672;37.764;2024-01-30T03:51:50;101128.44;;;2.05;100.00
26192;BME280;13935;55.672;37.764;2024-01-30T03:52:59;101139.44;;;2.00;100.00
26192;BME280;13935;55.672;37.764;2024-01-30T03:55:15;101142.66;;;2.02;100.00
26192;BME280;13935;55.672;37.764;2024-01-30T03:57:06;101144.34;;;2.16;100.00
26192;BME280;13935;55.672;37.764;2024-01-30T03:58:39;101149.72;;;2.21;100.00
26192;BME280;13935;55.672;37.764;2024-01-30T04:03:05;101148.63;;;2.36;100.00
26192;BME280;13935;55.672;37.764;2024-01-30T04:05:34;101151.59;;;2.21;100.00
26192;BME280;13935;55.672;37.764;2024-01-30T04:07:05;101146.78;;;2.31;100.00
26192;BME280;13935;55.672;37.764;2024-01-30T04:09:16;101155.41;;;2.07;100.00
26192;BME280;13935;55.672;37.764;2024-01-30T04:11:43;101146.19;;;2.34;100.00
26192;BME280;13935;55.672;37.764;2024-01-30T04:13:46;101154.44;;;2.16;100.00
26192;BME280;13935;55.672;37.764;2024-01-30T04:15:37;101147.19;;;2.25;100.00
26192;BME280;13935;55.672;37.764;2024-01-30T04:17:19;101157.69;;;2.31;100.00
26192;BME280;13935;55.672;37.764;2024-01-30T04:22:31;101153.22;;;2.22;100.00
26192;BME280;13935;55.672;37.764;2024-01-30T04:24:29;101146.47;;;2.19;100.00
26192;BME280;13935;55.672;37.764;2024-01-30T04:26:24;101145.72;;;2.14;100.00
26192;BME280;13935;55.672;37.764;2024-01-30T04:28:17;101154.28;;;2.26;100.00
26192;BME280;13935;55.672;37.764;2024-01-30T04:31:43;101141.13;;;2.28;100.00
26192;BME280;13935;55.672;37.764;2024-01-30T04:33:16;101147.09;;;2.30;100.00
26192;BME280;13935;55.672;37.764;2024-01-30T04:34:26;101148.63;;;2.36;100.00
26192;BME280;13935;55.672;37.764;2024-01-30T04:35:41;101142.94;;;2.46;100.00
26192;BME280;13935;55.672;37.764;2024-01-30T04:37:00;101143.38;;;2.39;100.00
26192;BME280;13935;55.672;37.764;2024-01-30T04:38:13;101136.28;;;2.38;100.00
26192;BME280;13935;55.672;37.764;2024-01-30T04:39:27;101133.56;;;2.52;100.00
26192;BME280;13935;55.672;37.764;2024-01-30T04:40:36;101133.03;;;2.36;100.00
26192;BME280;13935;55.672;37.764;2024-01-30T04:41:38;101136.91;;;2.49;100.00
26192;BME280;13935;55.672;37.764;2024-01-30T04:42:52;101140.75;;;2.48;100.00
26192;BME280;13935;55.672;37.764;2024-01-30T04:43:57;101135.69;;;2.55;100.00
26192;BME280;13935;55.672;37.764;2024-01-30T04:45:00;101137.28;;;2.42;100.00
26192;BME280;13935;55.672;37.764;2024-01-30T04:46:19;101140.16;;;2.51;100.00
26192;BME280;13935;55.672;37.764;2024-01-30T04:47:30;101142.38;;;2.49;100.00
26192;BME280;13935;55.672;37.764;2024-01-30T04:49:02;101139.31;;;2.37;100.00
26192;BME280;13935;55.672;37.764;2024-01-30T04:50:22;101137.06;;;2.39;100.00
26192;BME280;13935;55.672;37.764;2024-01-30T04:51:33;101136.38;;;2.47;100.00
26192;BME280;13935;55.672;37.764;2024-01-30T04:52:39;101148.25;;;2.56;100.00
26192;BME280;13935;55.672;37.764;2024-01-30T04:53:44;101147.13;;;2.57;100.00
26192;BME280;13935;55.672;37.764;2024-01-30T04:54:51;101149.19;;;2.33;100.00
26192;BME280;13935;55.672;37.764;2024-01-30T04:58:03;101148.22;;;2.42;100.00
26192;BME280;13935;55.672;37.764;2024-01-30T04:59:35;101152.19;;;2.50;100.00
26192;BME280;13935;55.672;37.764;2024-01-30T05:00:47;101154.09;;;2.49;100.00
26192;BME280;13935;55.672;37.764;2024-01-30T05:02:07;101149.44;;;2.50;100.00
26192;BME280;13935;55.672;37.764;2024-01-30T05:05:05;101152.28;;;2.45;100.00
26192;BME280;13935;55.672;37.764;2024-01-30T05:06:45;101146.19;;;2.48;100.00
26192;BME280;13935;55.672;37.764;2024-01-30T05:08:35;101140.16;;;2.51;100.00
26192;BME280;13935;55.672;37.764;2024-01-30T05:10:18;101131.53;;;2.44;100.00
26192;BME280;13935;55.672;37.764;2024-01-30T05:12:41;101143.06;;;2.41;100.00
26192;BME280;13935;55.672;37.764;2024-01-30T05:14:13;101136.91;;;2.49;100.00
26192;BME280;13935;55.672;37.764;2024-01-30T05:15:42;101147.13;;;2.57;100.00
26192;BME280;13935;55.672;37.764;2024-01-30T05:16:59;101145.41;;;2.61;100.00
26192;BME280;13935;55.672;37.764;2024-01-30T05:18:17;101136.50;;;2.42;100.00
26192;BME280;13935;55.672;37.764;2024-01-30T05:19:31;101141.56;;;2.62;100.00
26192;BME280;13935;55.672;37.764;2024-01-30T05:20:36;101140.53;;;2.58;100.00
26192;BME280;13935;55.672;37.764;2024-01-30T05:21:45;101130.81;;;2.52;100.00
26192;BME280;13935;55.672;37.764;2024-01-30T05:22:58;101137.50;;;2.73;100.00
26192;BME280;13935;55.672;37.764;2024-01-30T05:24:04;101152.91;;;2.69;100.00
26192;BME280;13935;55.672;37.764;2024-01-30T05:25:15;101151.88;;;2.78;100.00
26192;BME280;13935;55.672;37.764;2024-01-30T05:26:58;101139.72;;;2.71;100.00
26192;BME280;13935;55.672;37.764;2024-01-30T05:28:02;101152.69;;;2.79;100.00
26192;BME280;13935;55.672;37.764;2024-01-30T05:29:12;101140.56;;;2.71;100.00
26192;BME280;13935;55.672;37.764;2024-01-30T05:32:06;101155.91;;;2.40;100.00
26192;BME280;13935;55.672;37.764;2024-01-30T05:33:22;101155.41;;;2.52;100.00
26192;BME280;13935;55.672;37.764;2024-01-30T05:34:52;101155.69;;;2.64;100.00
26192;BME280;13935;55.672;37.764;2024-01-30T05:36:03;101166.09;;;2.48;100.00
26192;BME280;13935;55.672;37.764;2024-01-30T05:37:16;101154.00;;;2.54;100.00
26192;BME280;13935;55.672;37.764;2024-01-30T05:38:57;101157.22;;;2.56;100.00
26192;BME280;13935;55.672;37.764;2024-01-30T05:40:24;101160.78;;;2.57;100.00
26192;BME280;13935;55.672;37.764;2024-01-30T05:43:31;101151.28;;;2.68;100.00
26192;BME280;13935;55.672;37.764;2024-01-30T05:44:58;101145.41;;;2.61;100.00
26192;BME280;13935;55.672;37.764;2024-01-30T05:46:30;101152.38;;;2.67;100.00
26192;BME280;13935;55.672;37.764;2024-01-30T05:47:48;101166.97;;;2.76;100.00
26192;BME280;13935;55.672;37.764;2024-01-30T05:49:05;101157.75;;;2.72;100.00
26192;BME280;13935;55.672;37.764;2024-01-30T05:50:14;101157.53;;;2.55;100.00
26192;BME280;13935;55.672;37.764;2024-01-30T05:51:21;101158.66;;;2.67;100.00
26192;BME280;13935;55.672;37.764;2024-01-30T05:52:24;101161.31;;;2.72;100.00
26192;BME280;13935;55.672;37.764;2024-01-30T05:53:25;101171.28;;;2.63;100.00
26192;BME280;13935;55.672;37.764;2024-01-30T05:54:27;101157.31;;;2.65;100.00
26192;BME280;13935;55.672;37.764;2024-01-30T05:55:29;101160.16;;;2.73;100.00
26192;BME280;13935;55.672;37.764;2024-01-30T05:56:32;101164.63;;;2.56;100.00
26192;BME280;13935;55.672;37.764;2024-01-30T05:57:38;101167.34;;;2.56;100.00
26192;BME280;13935;55.672;37.764;2024-01-30T05:58:48;101172.91;;;2.51;100.00
26192;BME280;13935;55.672;37.764;2024-01-30T05:59:52;101174.94;;;2.59;100.00
26192;BME280;13935;55.672;37.764;2024-01-30T06:00:54;101177.56;;;2.64;100.00
26192;BME280;13935;55.672;37.764;2024-01-30T06:01:57;101174.34;;;2.62;100.00
26192;BME280;13935;55.672;37.764;2024-01-30T06:03:00;101173.22;;;2.63;100.00
26192;BME280;13935;55.672;37.764;2024-01-30T06:04:02;101176.03;;;2.44;100.00
26192;BME280;13935;55.672;37.764;2024-01-30T06:05:10;101173.59;;;2.43;100.00
26192;BME280;13935;55.672;37.764;2024-01-30T06:06:43;101177.75;;;2.54;100.00
26192;BME280;13935;55.672;37.764;2024-01-30T06:07:52;101180.22;;;2.69;100.00
26192;BME280;13935;55.672;37.764;2024-01-30T06:08:58;101179.91;;;2.57;100.00
26192;BME280;13935;55.672;37.764;2024-01-30T06:10:00;101172.81;;;2.69;100.00
26192;BME280;13935;55.672;37.764;2024-01-30T06:11:04;101186.25;;;2.66;100.00
26192;BME280;13935;55.672;37.764;2024-01-30T06:12:06;101177.06;;;2.62;100.00
26192;BME280;13935;55.672;37.764;2024-01-30T06:13:22;101181.72;;;2.75;100.00
26192;BME280;13935;55.672;37.764;2024-01-30T06:14:30;101180.09;;;2.60;100.00
26192;BME280;13935;55.672;37.764;2024-01-30T06:15:34;101171.41;;;2.72;100.00
26192;BME280;13935;55.672;37.764;2024-01-30T06:16:37;101179.91;;;2.70;100.00
26192;BME280;13935;55.672;37.764;2024-01-30T06:17:43;101181.91;;;2.65;100.00
26192;BME280;13935;55.672;37.764;2024-01-30T06:18:45;101181.22;;;2.73;100.00
26192;BME280;13935;55.672;37.764;2024-01-30T06:19:48;101186.69;;;2.59;100.00
26192;BME280;13935;55.672;37.764;2024-01-30T06:20:51;101182.84;;;2.74;100.00
26192;BME280;13935;55.672;37.764;2024-01-30T06:21:54;101188.81;;;2.76;100.00
26192;BME280;13935;55.672;37.764;2024-01-30T06:23:04;101178.59;;;2.68;100.00
26192;BME280;13935;55.672;37.764;2024-01-30T06:24:18;101188.50;;;2.77;100.00
26192;BME280;13935;55.672;37.764;2024-01-30T06:25:20;101187.31;;;2.70;100.00
26192;BME280;13935;55.672;37.764;2024-01-30T06:26:24;101192.25;;;2.68;100.00
26192;BME280;13935;55.672;37.764;2024-01-30T06:27:25;101189.09;;;2.61;100.00
26192;BME280;13935;55.672;37.764;2024-01-30T06:28:27;101194.34;;;2.71;100.00
26192;BME280;13935;55.672;37.764;2024-01-30T06:29:31;101194.66;;;2.69;100.00
26192;BME280;13935;55.672;37.764;2024-01-30T06:30:34;101182.13;;;2.68;100.00
26192;BME280;13935;55.672;37.764;2024-01-30T06:31:40;101184.06;;;2.68;100.00
26192;BME280;13935;55.672;37.764;2024-01-30T06:32:43;101184.44;;;2.61;100.00
26192;BME280;13935;55.672;37.764;2024-01-30T06:33:47;101191.13;;;2.69;100.00
26192;BME280;13935;55.672;37.764;2024-01-30T06:34:49;101189.63;;;2.76;100.00
26192;BME280;13935;55.672;37.764;2024-01-30T06:35:52;101194.19;;;2.81;100.00
26192;BME280;13935;55.672;37.764;2024-01-30T06:36:53;101192.34;;;2.89;100.00
26192;BME280;13935;55.672;37.764;2024-01-30T06:37:56;101204.91;;;2.90;100.00
26192;BME280;13935;55.672;37.764;2024-01-30T06:38:58;101199.03;;;2.83;100.00
26192;BME280;13935;55.672;37.764;2024-01-30T06:40:00;101203.38;;;2.84;100.00
26192;BME280;13935;55.672;37.764;2024-01-30T06:41:04;101204.38;;;2.88;100.00
26192;BME280;13935;55.672;37.764;2024-01-30T06:42:06;101203.06;;;2.86;100.00
26192;BME280;13935;55.672;37.764;2024-01-30T06:43:08;101213.59;;;2.92;100.00
26192;BME280;13935;55.672;37.764;2024-01-30T06:44:11;101214.59;;;2.96;100.00
26192;BME280;13935;55.672;37.764;2024-01-30T06:45:14;101213.19;;;2.99;100.00
26192;BME280;13935;55.672;37.764;2024-01-30T06:46:17;101197.31;;;2.87;100.00
26192;BME280;13935;55.672;37.764;2024-01-30T06:47:19;101207.25;;;2.97;100.00
26192;BME280;13935;55.672;37.764;2024-01-30T06:48:21;101204.91;;;2.90;100.00
26192;BME280;13935;55.672;37.764;2024-01-30T06:49:23;101206.31;;;2.88;100.00
26192;BME280;13935;55.672;37.764;2024-01-30T06:50:25;101195.50;;;2.83;100.00
26192;BME280;13935;55.672;37.764;2024-01-30T06:51:27;101196.50;;;3.00;100.00
26192;BME280;13935;55.672;37.764;2024-01-30T06:52:30;101195.81;;;2.82;100.00
26192;BME280;13935;55.672;37.764;2024-01-30T06:53:32;101203.09;;;2.99;100.00
26192;BME280;13935;55.672;37.764;2024-01-30T06:54:35;101205.09;;;2.94;100.00
26192;BME280;13935;55.672;37.764;2024-01-30T06:55:37;101207.34;;;3.05;100.00
26192;BME280;13935;55.672;37.764;2024-01-30T06:56:39;101194.78;;;3.04;100.00
26192;BME280;13935;55.672;37.764;2024-01-30T06:57:41;101192.94;;;3.13;100.00
26192;BME280;13935;55.672;37.764;2024-01-30T06:58:42;101202.06;;;3.09;100.00
26192;BME280;13935;55.672;37.764;2024-01-30T06:59:45;101197.81;;;3.16;100.00
26192;BME280;13935;55.672;37.764;2024-01-30T07:00:48;101206.13;;;3.11;100.00
26192;BME280;13935;55.672;37.764;2024-01-30T07:01:50;101204.91;;;3.17;100.00
26192;BME280;13935;55.672;37.764;2024-01-30T07:02:53;101201.03;;;3.05;100.00
26192;BME280;13935;55.672;37.764;2024-01-30T07:03:56;101208.56;;;2.99;100.00
26192;BME280;13935;55.672;37.764;2024-01-30T07:05:01;101203.97;;;3.08;100.00
26192;BME280;13935;55.672;37.764;2024-01-30T07:06:05;101200.44;;;3.08;100.00
26192;BME280;13935;55.672;37.764;2024-01-30T07:07:07;101210.97;;;3.28;100.00
26192;BME280;13935;55.672;37.764;2024-01-30T07:08:15;101209.03;;;3.01;100.00
26192;BME280;13935;55.672;37.764;2024-01-30T07:09:19;101208.34;;;3.09;100.00
26192;BME280;13935;55.672;37.764;2024-01-30T07:10:23;101202.88;;;3.09;100.00
26192;BME280;13935;55.672;37.764;2024-01-30T07:11:27;101213.09;;;3.17;100.00
26192;BME280;13935;55.672;37.764;2024-01-30T07:12:30;101205.91;;;3.08;100.00
26192;BME280;13935;55.672;37.764;2024-01-30T07:13:32;101220.06;;;3.23;100.00
26192;BME280;13935;55.672;37.764;2024-01-30T07:14:35;101217.44;;;3.18;100.00
26192;BME280;13935;55.672;37.764;2024-01-30T07:15:37;101218.88;;;3.16;100.00
26192;BME280;13935;55.672;37.764;2024-01-30T07:16:41;101215.84;;;3.17;100.00
26192;BME280;13935;55.672;37.764;2024-01-30T07:17:43;101222.31;;;3.08;100.00
26192;BME280;13935;55.672;37.764;2024-01-30T07:18:45;101222.91;;;3.18;100.00
26192;BME280;13935;55.672;37.764;2024-01-30T07:19:48;101228.69;;;3.03;100.00
26192;BME280;13935;55.672;37.764;2024-01-30T07:20:55;101222.41;;;3.16;100.00
26192;BME280;13935;55.672;37.764;2024-01-30T07:21:57;101230.81;;;3.06;100.00
26192;BME280;13935;55.672;37.764;2024-01-30T07:23:00;101232.84;;;3.01;100.00
26192;BME280;13935;55.672;37.764;2024-01-30T07:24:02;101228.47;;;3.13;100.00
26192;BME280;13935;55.672;37.764;2024-01-30T07:25:04;101231.53;;;3.25;100.00
26192;BME280;13935;55.672;37.764;2024-01-30T07:26:07;101232.00;;;3.27;100.00
26192;BME280;13935;55.672;37.764;2024-01-30T07:27:10;101230.78;;;3.33;100.00
26192;BME280;13935;55.672;37.764;2024-01-30T07:28:12;101228.38;;;3.18;100.00
26192;BME280;13935;55.672;37.764;2024-01-30T07:29:15;101230.72;;;3.11;100.00
26192;BME280;13935;55.672;37.764;2024-01-30T07:30:18;101219.38;;;3.31;100.00
26192;BME280;13935;55.672;37.764;2024-01-30T07:31:20;101232.00;;;3.27;100.00
26192;BME280;13935;55.672;37.764;2024-01-30T07:32:25;101229.59;;;3.12;100.00
26192;BME280;13935;55.672;37.764;2024-01-30T07:33:27;101234.44;;;3.15;100.00
26192;BME280;13935;55.672;37.764;2024-01-30T07:34:30;101232.00;;;3.27;100.00
26192;BME280;13935;55.672;37.764;2024-01-30T07:35:36;101232.00;;;3.27;100.00
26192;BME280;13935;55.672;37.764;2024-01-30T07:36:38;101236.25;;;3.33;100.00
26192;BME280;13935;55.672;37.764;2024-01-30T07:37:40;101229.56;;;3.39;100.00
26192;BME280;13935;55.672;37.764;2024-01-30T07:38:42;101231.00;;;3.50;100.00
26192;BME280;13935;55.672;37.764;2024-01-30T07:39:46;101234.63;;;3.32;100.00
26192;BME280;13935;55.672;37.764;2024-01-30T07:40:56;101226.94;;;3.34;100.00
26192;BME280;13935;55.672;37.764;2024-01-30T07:41:58;101223.69;;;3.32;100.00
26192;BME280;13935;55.672;37.764;2024-01-30T07:43:00;101228.16;;;3.28;100.00
26192;BME280;13935;55.672;37.764;2024-01-30T07:44:03;101232.50;;;3.43;100.00
26192;BME280;13935;55.672;37.764;2024-01-30T07:45:05;101234.84;;;3.36;100.00
26192;BME280;13935;55.672;37.764;2024-01-30T07:46:09;101223.09;;;3.35;100.00
26192;BME280;13935;55.672;37.764;2024-01-30T07:47:11;101235.31;;;3.51;100.00
26192;BME280;13935;55.672;37.764;2024-01-30T07:48:13;101233.09;;;3.53;100.00
26192;BME280;13935;55.672;37.764;2024-01-30T07:49:15;101226.41;;;3.59;100.00
26192;BME280;13935;55.672;37.764;2024-01-30T07:50:18;101232.06;;;3.62;100.00
26192;BME280;13935;55.672;37.764;2024-01-30T07:51:21;101225.88;;;3.57;100.00
26192;BME280;13935;55.672;37.764;2024-01-30T07:52:24;101233.31;;;3.43;100.00
26192;BME280;13935;55.672;37.764;2024-01-30T07:53:26;101220.72;;;3.55;100.00
26192;BME280;13935;55.672;37.764;2024-01-30T07:54:33;101232.69;;;3.59;100.00
26192;BME280;13935;55.672;37.764;2024-01-30T07:55:36;101222.44;;;3.65;100.00
26192;BME280;13935;55.672;37.764;2024-01-30T07:56:41;101229.78;;;3.78;100.00
26192;BME280;13935;55.672;37.764;2024-01-30T07:57:43;101232.31;;;3.53;100.00
26192;BME280;13935;55.672;37.764;2024-01-30T07:58:46;101237.16;;;3.42;100.00
26192;BME280;13935;55.672;37.764;2024-01-30T07:59:49;101231.38;;;3.44;100.00
26192;BME280;13935;55.672;37.764;2024-01-30T08:00:53;101218.59;;;3.66;100.00
26192;BME280;13935;55.672;37.764;2024-01-30T08:01:55;101221.91;;;3.63;100.00
26192;BME280;13935;55.672;37.764;2024-01-30T08:02:57;101228.69;;;3.79;100.00
26192;BME280;13935;55.672;37.764;2024-01-30T08:04:03;101222.22;;;3.61;100.00
26192;BME280;13935;55.672;37.764;2024-01-30T08:05:05;101225.81;;;3.84;100.00
26192;BME280;13935;55.672;37.764;2024-01-30T08:06:08;101222.56;;;3.82;100.00
26192;BME280;13935;55.672;37.764;2024-01-30T08:07:10;101227.84;;;3.78;100.00
26192;BME280;13935;55.672;37.764;2024-01-30T08:08:12;101222.56;;;3.82;100.00
26192;BME280;13935;55.672;37.764;2024-01-30T08:09:14;101211.06;;;3.71;100.00
26192;BME280;13935;55.672;37.764;2024-01-30T08:10:18;101218.34;;;3.76;100.00
26192;BME280;13935;55.672;37.764;2024-01-30T08:11:21;101217.84;;;3.74;100.00
26192;BME280;13935;55.672;37.764;2024-01-30T08:12:28;101218.84;;;3.78;100.00
26192;BME280;13935;55.672;37.764;2024-01-30T08:13:31;101228.63;;;3.92;100.00
26192;BME280;13935;55.672;37.764;2024-01-30T08:14:33;101215.25;;;3.69;100.00
26192;BME280;13935;55.672;37.764;2024-01-30T08:15:35;101226.66;;;3.84;100.00
26192;BME280;13935;55.672;37.764;2024-01-30T08:16:37;101225.03;;;3.83;100.00
26192;BME280;13935;55.672;37.764;2024-01-30T08:17:39;101222.69;;;3.77;100.00
26192;BME280;13935;55.672;37.764;2024-01-30T08:18:41;101234.28;;;3.96;100.00
26192;BME280;13935;55.672;37.764;2024-01-30T08:19:44;101229.66;;;3.83;100.00
26192;BME280;13935;55.672;37.764;2024-01-30T08:20:46;101222.75;;;3.99;100.00
26192;BME280;13935;55.672;37.764;2024-01-30T08:21:48;101221.88;;;4.12;100.00
26192;BME280;13935;55.672;37.764;2024-01-30T08:22:50;101223.00;;;4.11;100.00
26192;BME280;13935;55.672;37.764;2024-01-30T08:23:52;101216.50;;;4.07;100.00
26192;BME280;13935;55.672;37.764;2024-01-30T08:24:54;101221.13;;;3.98;100.00
26192;BME280;13935;55.672;37.764;2024-01-30T08:25:59;101219.63;;;3.92;100.00
26192;BME280;13935;55.672;37.764;2024-01-30T08:27:01;101218.06;;;3.99;100.00
26192;BME280;13935;55.672;37.764;2024-01-30T08:28:04;101219.66;;;3.78;100.00
26192;BME280;13935;55.672;37.764;2024-01-30T08:29:07;101224.50;;;3.81;100.00
26192;BME280;13935;55.672;37.764;2024-01-30T08:30:09;101221.06;;;3.76;100.00
26192;BME280;13935;55.672;37.764;2024-01-30T08:31:11;101229.94;;;3.95;100.00
26192;BME280;13935;55.672;37.764;2024-01-30T08:32:16;101228.31;;;3.94;100.00
26192;BME280;13935;55.672;37.764;2024-01-30T08:33:18;101230.31;;;3.80;100.00
26192;BME280;13935;55.672;37.764;2024-01-30T08:34:20;101232.25;;;3.66;100.00
26192;BME280;13935;55.672;37.764;2024-01-30T08:35:22;101238.72;;;3.70;100.00
26192;BME280;13935;55.672;37.764;2024-01-30T08:36:25;101232.03;;;3.76;100.00
26192;BME280;13935;55.672;37.764;2024-01-30T08:37:27;101228.03;;;3.82;100.00
26192;BME280;13935;55.672;37.764;2024-01-30T08:38:29;101228.56;;;3.84;100.00
26192;BME280;13935;55.672;37.764;2024-01-30T08:39:31;101226.06;;;3.74;100.00
26192;BME280;13935;55.672;37.764;2024-01-30T08:40:33;101227.00;;;3.91;100.00
26192;BME280;13935;55.672;37.764;2024-01-30T08:41:35;101227.56;;;4.02;100.00
26192;BME280;13935;55.672;37.764;2024-01-30T08:42:37;101225.88;;;3.57;100.00
26192;BME280;13935;55.672;37.764;2024-01-30T08:43:39;101221.63;;;3.51;100.00
26192;BME280;13935;55.672;37.764;2024-01-30T08:44:41;101222.81;;;3.72;100.00
26192;BME280;13935;55.672;37.764;2024-01-30T08:45:43;101231.28;;;3.49;100.00
26192;BME280;13935;55.672;37.764;2024-01-30T08:46:45;101226.91;;;3.48;100.00